createdAt,value
2017-04-14T00:00:31.263Z,5.8
2017-04-14T00:01:31.195Z,5.78
2017-04-14T00:02:31.166Z,5.75
2017-04-14T00:03:31.143Z,5.8
2017-04-14T00:04:30.814Z,5.75
2017-04-14T00:05:31.094Z,5.83
2017-04-14T00:06:31.063Z,5.83
2017-04-14T00:07:31.054Z,5.83
2017-04-14T00:08:30.713Z,5.8
2017-04-14T00:09:31.001Z,5.8
2017-04-14T00:10:30.970Z,5.83
2017-04-14T00:11:30.953Z,5.78
2017-04-14T00:12:30.919Z,5.73
2017-04-14T00:13:30.893Z,5.83
2017-04-14T00:14:30.872Z,5.83
2017-04-14T00:15:31.147Z,5.85
2017-04-14T00:16:30.818Z,5.8
2017-04-14T00:17:30.803Z,5.81
2017-04-14T00:18:30.780Z,5.75
2017-04-14T00:19:30.803Z,5.8
2017-04-14T00:20:30.724Z,5.74
2017-04-14T00:21:30.699Z,5.8
2017-04-14T00:22:30.672Z,5.74
2017-04-14T00:23:30.661Z,5.75
2017-04-14T00:24:30.628Z,5.75
2017-04-14T00:25:30.604Z,5.74
2017-04-14T00:26:30.577Z,5.77
2017-04-14T00:27:30.604Z,5.84
2017-04-14T00:28:30.528Z,5.81
2017-04-14T00:29:30.505Z,6.01
2017-04-14T00:30:30.477Z,6.03
2017-04-14T00:31:30.448Z,6.03
2017-04-14T00:32:30.435Z,5.93
2017-04-14T00:33:30.403Z,5.99
2017-04-14T00:34:30.381Z,5.92
2017-04-14T00:35:30.351Z,5.99
2017-04-14T00:36:30.329Z,5.99
2017-04-14T00:37:30.309Z,5.95
2017-04-14T00:38:29.985Z,5.93
2017-04-14T00:39:30.253Z,6.01
2017-04-14T00:40:29.981Z,5.92
2017-04-14T00:41:29.907Z,5.92
2017-04-14T00:42:30.181Z,6.03
2017-04-14T00:43:30.243Z,5.96
2017-04-14T00:44:29.839Z,5.87
2017-04-14T00:45:30.109Z,5.87
2017-04-14T00:46:30.146Z,5.81
2017-04-14T00:47:30.067Z,5.75
2017-04-14T00:48:30.035Z,5.66
2017-04-14T00:49:30.006Z,5.7
2017-04-14T00:50:29.989Z,5.65
2017-04-14T00:51:30.665Z,5.65
2017-04-14T00:52:29.637Z,5.6
2017-04-14T00:53:29.924Z,5.62
2017-04-14T00:54:29.941Z,5.65
2017-04-14T00:55:29.868Z,5.51
2017-04-14T00:56:29.838Z,5.52
2017-04-14T00:57:29.809Z,5.47
2017-04-14T00:58:29.795Z,5.55
2017-04-14T00:59:31.506Z,5.51
2017-04-14T01:00:29.751Z,5.47
2017-04-14T01:01:29.406Z,5.51
2017-04-14T01:02:29.742Z,5.44
2017-04-14T01:03:29.715Z,5.44
2017-04-14T01:04:29.649Z,5.35
2017-04-14T01:05:29.611Z,5.4
2017-04-14T01:06:29.602Z,5.44
2017-04-14T01:07:29.569Z,5.42
2017-04-14T01:08:29.585Z,5.27
2017-04-14T01:09:29.506Z,5.33
2017-04-14T01:10:29.491Z,5.29
2017-04-14T01:11:29.458Z,5.3
2017-04-14T01:12:29.435Z,5.27
2017-04-14T01:13:29.412Z,5.24
2017-04-14T01:14:29.394Z,5.27
2017-04-14T01:15:29.365Z,5.32
2017-04-14T01:16:29.046Z,5.19
2017-04-14T01:17:29.330Z,5.26
2017-04-14T01:18:29.287Z,5.23
2017-04-14T01:19:29.270Z,5.14
2017-04-14T01:20:29.249Z,5.2
2017-04-14T01:21:28.913Z,5.23
2017-04-14T01:22:29.196Z,5.23
2017-04-14T01:23:29.160Z,5.15
2017-04-14T01:24:29.134Z,5.15
2017-04-14T01:25:29.114Z,5.12
2017-04-14T01:26:29.084Z,5.17
2017-04-14T01:27:29.071Z,5.08
2017-04-14T01:28:29.037Z,5.12
2017-04-14T01:29:29.007Z,5.02
2017-04-14T01:30:29.042Z,5.04
2017-04-14T01:31:28.962Z,5.05
2017-04-14T01:32:28.946Z,4.96
2017-04-14T01:33:29.416Z,5.01
2017-04-14T01:34:28.887Z,5.05
2017-04-14T01:35:28.863Z,5.09
2017-04-14T01:36:28.843Z,5.04
2017-04-14T01:37:28.808Z,4.99
2017-04-14T01:38:28.791Z,5.01
2017-04-14T01:39:28.762Z,4.94
2017-04-14T01:40:28.735Z,4.94
2017-04-14T01:41:28.710Z,5.01
2017-04-14T01:42:28.681Z,4.91
2017-04-14T01:43:28.669Z,4.94
2017-04-14T01:44:28.671Z,4.99
2017-04-14T01:45:28.610Z,4.99
2017-04-14T01:46:28.889Z,4.91
2017-04-14T01:47:28.260Z,4.93
2017-04-14T01:48:28.537Z,4.93
2017-04-14T01:49:28.211Z,4.94
2017-04-14T01:50:28.488Z,4.87
2017-04-14T01:51:28.459Z,4.93
2017-04-14T01:52:28.439Z,4.94
2017-04-14T01:53:29.259Z,4.88
2017-04-14T01:54:28.337Z,4.86
2017-04-14T01:55:28.360Z,4.87
2017-04-14T01:56:28.342Z,4.87
2017-04-14T01:57:28.370Z,4.9
2017-04-14T01:58:28.288Z,4.88
2017-04-14T01:59:28.276Z,4.88
2017-04-14T02:00:28.276Z,4.94
2017-04-14T02:01:28.224Z,4.93
2017-04-14T02:02:28.195Z,4.94
2017-04-14T02:03:28.164Z,5.01
2017-04-14T02:04:28.135Z,5.02
2017-04-14T02:05:28.110Z,5.14
2017-04-14T02:06:28.096Z,5.09
2017-04-14T02:07:28.075Z,5.22
2017-04-14T02:08:27.428Z,5.23
2017-04-14T02:09:28.007Z,5.2
2017-04-14T02:10:27.983Z,5.23
2017-04-14T02:11:27.965Z,5.23
2017-04-14T02:12:27.931Z,5.19
2017-04-14T02:13:27.955Z,5.14
2017-04-14T02:14:27.889Z,5.11
2017-04-14T02:15:27.863Z,5.17
2017-04-14T02:16:27.832Z,5.01
2017-04-14T02:17:27.804Z,5.01
2017-04-14T02:18:27.784Z,5.01
2017-04-14T02:19:27.761Z,4.99
2017-04-14T02:20:27.783Z,5.08
2017-04-14T02:21:27.766Z,5.06
2017-04-14T02:22:27.690Z,5.01
2017-04-14T02:23:27.660Z,5.01
2017-04-14T02:24:27.647Z,4.97
2017-04-14T02:25:27.617Z,4.94
2017-04-14T02:26:27.584Z,4.94
2017-04-14T02:27:27.557Z,4.96
2017-04-14T02:28:27.533Z,4.96
2017-04-14T02:29:27.505Z,4.97
2017-04-14T02:30:27.481Z,4.94
2017-04-14T02:31:27.459Z,4.83
2017-04-14T02:32:27.439Z,4.86
2017-04-14T02:33:27.405Z,4.83
2017-04-14T02:34:27.376Z,4.88
2017-04-14T02:35:27.058Z,4.79
2017-04-14T02:36:27.338Z,4.77
2017-04-14T02:37:27.304Z,4.83
2017-04-14T02:38:27.286Z,4.83
2017-04-14T02:39:27.253Z,4.77
2017-04-14T02:40:27.231Z,4.72
2017-04-14T02:41:28.353Z,4.77
2017-04-14T02:42:27.177Z,4.72
2017-04-14T02:43:27.211Z,4.75
2017-04-14T02:44:27.135Z,4.71
2017-04-14T02:45:27.104Z,4.72
2017-04-14T02:46:26.775Z,4.75
2017-04-14T02:47:27.066Z,4.72
2017-04-14T02:48:27.057Z,4.71
2017-04-14T02:49:27.003Z,4.65
2017-04-14T02:50:26.978Z,4.77
2017-04-14T02:51:26.954Z,4.57
2017-04-14T02:52:26.926Z,4.62
2017-04-14T02:53:26.908Z,4.62
2017-04-14T02:54:26.880Z,4.59
2017-04-14T02:55:26.854Z,4.56
2017-04-14T02:56:27.137Z,4.64
2017-04-14T02:57:26.804Z,4.59
2017-04-14T02:58:26.783Z,4.61
2017-04-14T02:59:26.752Z,4.54
2017-04-14T03:00:26.738Z,4.61
2017-04-14T03:01:26.710Z,4.57
2017-04-14T03:02:26.681Z,4.62
2017-04-14T03:03:26.659Z,4.59
2017-04-14T03:04:26.628Z,4.61
2017-04-14T03:05:26.620Z,4.54
2017-04-14T03:06:26.626Z,4.56
2017-04-14T03:07:26.548Z,4.51
2017-04-14T03:08:26.528Z,4.56
2017-04-14T03:09:26.198Z,4.56
2017-04-14T03:10:26.478Z,4.64
2017-04-14T03:11:26.461Z,4.54
2017-04-14T03:12:26.425Z,4.54
2017-04-14T03:13:26.453Z,4.49
2017-04-14T03:14:26.378Z,4.54
2017-04-14T03:15:26.343Z,4.64
2017-04-14T03:16:26.325Z,4.51
2017-04-14T03:17:26.302Z,4.54
2017-04-14T03:18:26.323Z,4.57
2017-04-14T03:19:26.245Z,4.54
2017-04-14T03:20:26.221Z,4.5
2017-04-14T03:21:26.191Z,4.53
2017-04-14T03:22:26.166Z,4.61
2017-04-14T03:23:26.145Z,4.47
2017-04-14T03:24:26.136Z,4.46
2017-04-14T03:25:26.096Z,4.56
2017-04-14T03:26:26.124Z,4.47
2017-04-14T03:27:26.051Z,4.53
2017-04-14T03:28:26.031Z,4.47
2017-04-14T03:29:25.990Z,4.53
2017-04-14T03:30:25.962Z,4.46
2017-04-14T03:31:25.941Z,4.44
2017-04-14T03:32:25.913Z,4.43
2017-04-14T03:33:25.887Z,4.43
2017-04-14T03:34:25.872Z,4.47
2017-04-14T03:35:25.839Z,4.42
2017-04-14T03:36:25.813Z,4.32
2017-04-14T03:37:25.794Z,4.39
2017-04-14T03:38:25.766Z,4.35
2017-04-14T03:39:25.741Z,4.28
2017-04-14T03:40:25.768Z,4.32
2017-04-14T03:41:25.685Z,4.29
2017-04-14T03:42:25.665Z,4.35
2017-04-14T03:43:25.638Z,4.35
2017-04-14T03:44:25.614Z,4.29
2017-04-14T03:45:25.584Z,4.36
2017-04-14T03:46:25.555Z,4.35
2017-04-14T03:47:25.534Z,4.39
2017-04-14T03:48:25.516Z,4.31
2017-04-14T03:49:25.481Z,4.24
2017-04-14T03:50:25.508Z,4.28
2017-04-14T03:51:25.434Z,4.26
2017-04-14T03:52:25.410Z,4.16
2017-04-14T03:53:25.393Z,4.21
2017-04-14T03:54:25.369Z,4.16
2017-04-14T03:55:25.327Z,4.2
2017-04-14T03:56:26.602Z,4.25
2017-04-14T03:57:25.278Z,4.14
2017-04-14T03:58:25.263Z,4.16
2017-04-14T03:59:25.226Z,4.1
2017-04-14T04:00:24.899Z,4.11
2017-04-14T04:01:25.237Z,4.16
2017-04-14T04:02:24.856Z,4.16
2017-04-14T04:03:25.347Z,4.1
2017-04-14T04:04:25.103Z,4.18
2017-04-14T04:05:25.076Z,4.08
2017-04-14T04:06:25.047Z,4.13
2017-04-14T04:07:25.019Z,4.2
2017-04-14T04:08:25.008Z,4.14
2017-04-14T04:09:24.974Z,4.11
2017-04-14T04:10:24.947Z,4.13
2017-04-14T04:11:25.821Z,4.2
2017-04-14T04:12:24.891Z,4.11
2017-04-14T04:13:24.868Z,4.11
2017-04-14T04:14:24.853Z,4.13
2017-04-14T04:15:24.519Z,4.2
2017-04-14T04:16:24.803Z,4.11
2017-04-14T04:17:24.764Z,4.13
2017-04-14T04:18:24.736Z,4.17
2017-04-14T04:19:24.713Z,4.17
2017-04-14T04:20:24.690Z,4.11
2017-04-14T04:21:24.662Z,4.11
2017-04-14T04:22:24.643Z,4.1
2017-04-14T04:23:24.618Z,4.08
2017-04-14T04:24:24.588Z,4.11
2017-04-14T04:25:24.561Z,4.14
2017-04-14T04:26:25.285Z,4.13
2017-04-14T04:27:24.515Z,4.17
2017-04-14T04:28:24.492Z,4.06
2017-04-14T04:29:24.459Z,4.06
2017-04-14T04:30:24.435Z,4
2017-04-14T04:31:24.410Z,3.99
2017-04-14T04:32:24.379Z,4.06
2017-04-14T04:33:24.364Z,4.07
2017-04-14T04:34:24.333Z,4.06
2017-04-14T04:35:24.305Z,4.06
2017-04-14T04:36:23.977Z,4.07
2017-04-14T04:37:24.249Z,4.04
2017-04-14T04:38:24.229Z,4.04
2017-04-14T04:39:24.206Z,4
2017-04-14T04:40:24.228Z,4.14
2017-04-14T04:41:24.148Z,4.17
2017-04-14T04:42:24.180Z,4.07
2017-04-14T04:43:24.109Z,4.13
2017-04-14T04:44:24.079Z,4.08
2017-04-14T04:45:24.053Z,4.14
2017-04-14T04:46:24.024Z,4.14
2017-04-14T04:47:24.009Z,4.18
2017-04-14T04:48:24.025Z,4.17
2017-04-14T04:49:23.953Z,4.14
2017-04-14T04:50:23.618Z,4.11
2017-04-14T04:51:23.951Z,4.16
2017-04-14T04:52:23.867Z,4.17
2017-04-14T04:53:23.904Z,4.18
2017-04-14T04:54:23.828Z,4.25
2017-04-14T04:55:23.806Z,4.16
2017-04-14T04:56:23.768Z,4.18
2017-04-14T04:57:23.443Z,4.28
2017-04-14T04:58:23.733Z,4.28
2017-04-14T04:59:23.699Z,4.39
2017-04-14T05:00:23.660Z,4.39
2017-04-14T05:01:23.648Z,4.38
2017-04-14T05:02:23.617Z,4.56
2017-04-14T05:03:23.291Z,4.49
2017-04-14T05:04:23.560Z,4.44
2017-04-14T05:05:23.539Z,4.61
2017-04-14T05:06:24.458Z,4.56
2017-04-14T05:07:23.490Z,4.61
2017-04-14T05:08:23.465Z,4.57
2017-04-14T05:09:23.443Z,4.57
2017-04-14T05:10:23.437Z,4.68
2017-04-14T05:11:23.387Z,4.69
2017-04-14T05:12:23.363Z,4.75
2017-04-14T05:13:23.336Z,4.8
2017-04-14T05:14:23.336Z,4.83
2017-04-14T05:15:23.285Z,4.9
2017-04-14T05:16:23.262Z,4.94
2017-04-14T05:17:23.235Z,5.02
2017-04-14T05:18:23.259Z,5.15
2017-04-14T05:19:23.230Z,5.26
2017-04-14T05:20:23.161Z,5.35
2017-04-14T05:21:23.136Z,5.49
2017-04-14T05:22:23.115Z,5.77
2017-04-14T05:23:23.089Z,5.93
2017-04-14T05:24:23.070Z,6.11
2017-04-14T05:25:23.091Z,6.27
2017-04-14T05:26:23.018Z,6.39
2017-04-14T05:27:22.989Z,6.6
2017-04-14T05:28:22.971Z,6.65
2017-04-14T05:29:22.638Z,6.76
2017-04-14T05:30:22.922Z,6.91
2017-04-14T05:31:22.890Z,7.09
2017-04-14T05:32:22.867Z,7.09
2017-04-14T05:33:22.847Z,7.19
2017-04-14T05:34:22.833Z,7.33
2017-04-14T05:35:22.809Z,7.34
2017-04-14T05:36:22.776Z,7.36
2017-04-14T05:37:22.756Z,7.36
2017-04-14T05:38:22.735Z,7.33
2017-04-14T05:39:22.709Z,7.33
2017-04-14T05:40:24.238Z,7.33
2017-04-14T05:41:22.666Z,7.33
2017-04-14T05:42:22.638Z,7.3
2017-04-14T05:43:22.613Z,7.19
2017-04-14T05:44:22.638Z,7.18
2017-04-14T05:45:22.569Z,7.16
2017-04-14T05:46:22.542Z,7.07
2017-04-14T05:47:23.870Z,7.16
2017-04-14T05:48:22.499Z,7.16
2017-04-14T05:49:22.472Z,7.27
2017-04-14T05:50:22.453Z,7.39
2017-04-14T05:51:22.832Z,7.57
2017-04-14T05:52:22.403Z,7.73
2017-04-14T05:53:22.386Z,8.03
2017-04-14T05:54:22.362Z,8.25
2017-04-14T05:55:22.339Z,8.67
2017-04-14T05:56:23.422Z,8.79
2017-04-14T05:57:22.299Z,8.96
2017-04-14T05:58:23.194Z,9.26
2017-04-14T05:59:22.252Z,9.41
2017-04-14T06:00:22.227Z,9.62
2017-04-14T06:01:22.204Z,9.99
2017-04-14T06:02:22.187Z,10.18
2017-04-14T06:03:22.165Z,10.46
2017-04-14T06:04:22.150Z,10.52
2017-04-14T06:05:22.121Z,10.8
2017-04-14T06:06:22.097Z,10.88
2017-04-14T06:07:22.129Z,11.06
2017-04-14T06:08:22.067Z,11.24
2017-04-14T06:09:22.039Z,11.56
2017-04-14T06:10:23.019Z,11.81
2017-04-14T06:11:22.002Z,11.94
2017-04-14T06:12:21.975Z,12.15
2017-04-14T06:13:21.953Z,12.22
2017-04-14T06:14:21.931Z,12.34
2017-04-14T06:15:21.905Z,12.31
2017-04-14T06:16:21.897Z,12.48
2017-04-14T06:17:21.870Z,12.73
2017-04-14T06:18:21.847Z,12.92
2017-04-14T06:19:21.831Z,12.96
2017-04-14T06:20:21.807Z,13.03
2017-04-14T06:21:21.786Z,13.25
2017-04-14T06:22:21.764Z,13.44
2017-04-14T06:23:21.949Z,13.51
2017-04-14T06:24:21.739Z,13.73
2017-04-14T06:25:21.703Z,13.93
2017-04-14T06:26:21.688Z,14.13
2017-04-14T06:27:21.715Z,14.31
2017-04-14T06:28:21.647Z,14.56
2017-04-14T06:29:21.636Z,14.63
2017-04-14T06:30:21.612Z,14.67
2017-04-14T06:31:21.597Z,14.8
2017-04-14T06:32:21.568Z,15.03
2017-04-14T06:33:21.553Z,15.15
2017-04-14T06:34:21.535Z,15.35
2017-04-14T06:35:22.265Z,15.41
2017-04-14T06:36:21.513Z,15.52
2017-04-14T06:37:21.478Z,15.51
2017-04-14T06:38:21.466Z,15.74
2017-04-14T06:39:21.445Z,15.88
2017-04-14T06:40:21.433Z,15.59
2017-04-14T06:41:21.419Z,15.48
2017-04-14T06:42:21.389Z,15.43
2017-04-14T06:43:21.376Z,15.4
2017-04-14T06:44:21.350Z,15.51
2017-04-14T06:45:21.342Z,15.51
2017-04-14T06:46:21.323Z,15.52
2017-04-14T06:47:22.348Z,15.51
2017-04-14T06:48:21.287Z,15.7
2017-04-14T06:49:21.310Z,15.77
2017-04-14T06:50:21.241Z,15.86
2017-04-14T06:51:21.232Z,15.89
2017-04-14T06:52:21.215Z,15.86
2017-04-14T06:53:21.198Z,15.73
2017-04-14T06:54:21.190Z,15.52
2017-04-14T06:55:21.162Z,15.56
2017-04-14T06:56:20.845Z,15.49
2017-04-14T06:57:21.120Z,15.53
2017-04-14T06:58:21.112Z,15.62
2017-04-14T06:59:21.086Z,15.74
2017-04-14T07:00:21.074Z,15.89
2017-04-14T07:01:21.057Z,16.07
2017-04-14T07:02:21.131Z,16.11
2017-04-14T07:03:21.078Z,16.29
2017-04-14T07:04:21.006Z,16.6
2017-04-14T07:05:20.993Z,16.85
2017-04-14T07:06:21.265Z,17.22
2017-04-14T07:07:20.953Z,17.71
2017-04-14T07:08:20.936Z,17.92
2017-04-14T07:09:20.921Z,17.62
2017-04-14T07:10:20.902Z,17.18
2017-04-14T07:11:20.894Z,16.57
2017-04-14T07:12:20.871Z,16.01
2017-04-14T07:13:20.854Z,15.66
2017-04-14T07:14:20.542Z,15.15
2017-04-14T07:15:20.819Z,14.71
2017-04-14T07:16:20.204Z,14.19
2017-04-14T07:17:21.035Z,13.94
2017-04-14T07:18:20.765Z,13.59
2017-04-14T07:19:20.746Z,13.24
2017-04-14T07:20:20.727Z,13.07
2017-04-14T07:21:20.705Z,12.91
2017-04-14T07:22:20.690Z,12.71
2017-04-14T07:23:20.680Z,12.58
2017-04-14T07:24:20.652Z,12.34
2017-04-14T07:25:20.645Z,12.18
2017-04-14T07:26:20.624Z,12.01
2017-04-14T07:27:22.409Z,11.93
2017-04-14T07:28:20.584Z,11.79
2017-04-14T07:29:20.566Z,11.56
2017-04-14T07:30:20.538Z,11.51
2017-04-14T07:31:20.513Z,11.38
2017-04-14T07:32:20.494Z,11.13
2017-04-14T07:33:20.469Z,10.95
2017-04-14T07:34:20.450Z,10.84
2017-04-14T07:35:20.433Z,10.86
2017-04-14T07:36:20.425Z,10.87
2017-04-14T07:37:22.000Z,10.75
2017-04-14T07:38:20.373Z,10.73
2017-04-14T07:39:20.354Z,10.8
2017-04-14T07:40:20.334Z,10.73
2017-04-14T07:41:20.319Z,10.81
2017-04-14T07:42:20.288Z,10.81
2017-04-14T07:43:20.287Z,10.8
2017-04-14T07:44:20.248Z,10.73
2017-04-14T07:45:20.235Z,10.76
2017-04-14T07:46:20.202Z,10.7
2017-04-14T07:47:20.189Z,10.84
2017-04-14T07:48:20.166Z,10.87
2017-04-14T07:49:20.443Z,10.81
2017-04-14T07:50:20.120Z,10.86
2017-04-14T07:51:20.146Z,10.94
2017-04-14T07:52:20.079Z,10.86
2017-04-14T07:53:20.058Z,10.8
2017-04-14T07:54:20.037Z,10.69
2017-04-14T07:55:20.014Z,10.66
2017-04-14T07:56:19.994Z,10.68
2017-04-14T07:57:19.968Z,10.57
2017-04-14T07:58:19.653Z,10.66
2017-04-14T07:59:21.627Z,10.52
2017-04-14T08:00:19.914Z,10.51
2017-04-14T08:01:19.879Z,10.39
2017-04-14T08:02:19.862Z,10.26
2017-04-14T08:03:19.849Z,10.29
2017-04-14T08:04:19.820Z,10.25
2017-04-14T08:05:19.808Z,10.2
2017-04-14T08:06:19.776Z,10.2
2017-04-14T08:07:20.108Z,10.25
2017-04-14T08:08:19.787Z,10.26
2017-04-14T08:09:19.718Z,10.28
2017-04-14T08:10:19.692Z,10.22
2017-04-14T08:11:19.669Z,10.11
2017-04-14T08:12:19.650Z,10.13
2017-04-14T08:13:19.632Z,10.26
2017-04-14T08:14:19.608Z,10.16
2017-04-14T08:15:19.585Z,10.2
2017-04-14T08:16:19.565Z,10.09
2017-04-14T08:17:19.546Z,10.09
2017-04-14T08:18:20.016Z,10.01
2017-04-14T08:19:19.501Z,9.99
2017-04-14T08:20:19.524Z,10.06
2017-04-14T08:21:19.465Z,9.95
2017-04-14T08:22:19.432Z,10.07
2017-04-14T08:23:19.464Z,10.02
2017-04-14T08:24:19.388Z,10.02
2017-04-14T08:25:19.368Z,10.06
2017-04-14T08:26:19.341Z,9.98
2017-04-14T08:27:20.168Z,10.02
2017-04-14T08:28:19.304Z,10.06
2017-04-14T08:29:19.282Z,10.09
2017-04-14T08:30:19.264Z,10.11
2017-04-14T08:31:19.237Z,10.09
2017-04-14T08:32:18.916Z,10.16
2017-04-14T08:33:19.227Z,10.11
2017-04-14T08:34:18.874Z,10.09
2017-04-14T08:35:19.153Z,10.09
2017-04-14T08:36:19.125Z,10.2
2017-04-14T08:37:18.802Z,10.18
2017-04-14T08:38:19.099Z,10.17
2017-04-14T08:39:19.057Z,10.17
2017-04-14T08:40:19.042Z,10.13
2017-04-14T08:41:19.015Z,10.14
2017-04-14T08:42:18.997Z,10.13
2017-04-14T08:43:18.981Z,10.04
2017-04-14T08:44:18.966Z,10.1
2017-04-14T08:45:18.980Z,10.1
2017-04-14T08:46:18.908Z,10.14
2017-04-14T08:47:18.878Z,10.18
2017-04-14T08:48:18.877Z,10.11
2017-04-14T08:49:18.847Z,10.24
2017-04-14T08:50:18.818Z,10.14
2017-04-14T08:51:18.802Z,10.18
2017-04-14T08:52:18.782Z,10.29
2017-04-14T08:53:18.758Z,10.31
2017-04-14T08:54:18.737Z,10.28
2017-04-14T08:55:18.711Z,10.35
2017-04-14T08:56:18.687Z,10.36
2017-04-14T08:57:18.665Z,10.35
2017-04-14T08:58:18.694Z,10.42
2017-04-14T08:59:18.629Z,10.46
2017-04-14T09:00:18.602Z,10.43
2017-04-14T09:01:33.183Z,10.52
2017-04-14T09:02:18.265Z,10.58
2017-04-14T09:03:18.536Z,10.57
2017-04-14T09:04:18.516Z,10.54
2017-04-14T09:05:18.495Z,10.52
2017-04-14T09:06:18.519Z,10.44
2017-04-14T09:07:18.152Z,10.44
2017-04-14T09:08:18.426Z,10.38
2017-04-14T09:09:18.469Z,10.55
2017-04-14T09:10:18.394Z,10.55
2017-04-14T09:11:18.356Z,10.36
2017-04-14T09:12:18.336Z,10.39
2017-04-14T09:13:18.312Z,10.39
2017-04-14T09:14:18.292Z,10.43
2017-04-14T09:15:18.280Z,10.38
2017-04-14T09:16:18.249Z,10.38
2017-04-14T09:17:18.224Z,10.44
2017-04-14T09:18:18.200Z,10.42
2017-04-14T09:19:18.438Z,10.34
2017-04-14T09:20:18.164Z,10.35
2017-04-14T09:21:18.154Z,10.28
2017-04-14T09:22:18.121Z,10.26
2017-04-14T09:23:18.153Z,10.28
2017-04-14T09:24:18.329Z,10.26
2017-04-14T09:25:18.057Z,10.25
2017-04-14T09:26:17.735Z,10.25
2017-04-14T09:27:18.023Z,10.31
2017-04-14T09:28:17.984Z,10.29
2017-04-14T09:29:17.663Z,10.36
2017-04-14T09:30:18.003Z,10.34
2017-04-14T09:31:17.618Z,10.26
2017-04-14T09:32:17.899Z,10.36
2017-04-14T09:33:17.879Z,10.36
2017-04-14T09:34:17.862Z,10.36
2017-04-14T09:35:17.535Z,10.39
2017-04-14T09:36:17.516Z,10.42
2017-04-14T09:37:17.790Z,10.43
2017-04-14T09:38:17.971Z,10.36
2017-04-14T09:39:17.748Z,10.35
2017-04-14T09:40:17.715Z,10.36
2017-04-14T09:41:17.700Z,10.44
2017-04-14T09:42:17.689Z,10.39
2017-04-14T09:43:17.655Z,10.39
2017-04-14T09:44:17.634Z,10.35
2017-04-14T09:45:17.621Z,10.35
2017-04-14T09:46:17.646Z,10.42
2017-04-14T09:47:17.566Z,10.43
2017-04-14T09:48:17.553Z,10.39
2017-04-14T09:49:17.526Z,10.36
2017-04-14T09:50:17.502Z,10.47
2017-04-14T09:51:17.481Z,10.51
2017-04-14T09:52:17.459Z,10.42
2017-04-14T09:53:17.436Z,10.55
2017-04-14T09:54:17.417Z,10.49
2017-04-14T09:55:17.438Z,10.51
2017-04-14T09:56:17.375Z,10.55
2017-04-14T09:57:17.351Z,10.51
2017-04-14T09:58:17.342Z,10.54
2017-04-14T09:59:17.304Z,10.51
2017-04-14T10:00:17.285Z,10.54
2017-04-14T10:01:17.262Z,10.66
2017-04-14T10:02:17.244Z,10.66
2017-04-14T10:03:17.219Z,10.7
2017-04-14T10:04:16.948Z,10.66
2017-04-14T10:05:17.174Z,10.6
2017-04-14T10:06:17.177Z,10.6
2017-04-14T10:07:17.140Z,10.58
2017-04-14T10:08:17.111Z,10.63
2017-04-14T10:09:17.093Z,10.57
2017-04-14T10:10:17.065Z,10.65
2017-04-14T10:11:17.046Z,10.57
2017-04-14T10:12:17.874Z,10.62
2017-04-14T10:13:17.003Z,10.63
2017-04-14T10:14:17.228Z,10.65
2017-04-14T10:15:16.951Z,10.63
2017-04-14T10:16:16.931Z,10.66
2017-04-14T10:17:16.615Z,10.62
2017-04-14T10:18:16.896Z,10.75
2017-04-14T10:19:16.576Z,10.66
2017-04-14T10:20:16.852Z,10.68
2017-04-14T10:21:16.817Z,10.62
2017-04-14T10:22:16.802Z,10.66
2017-04-14T10:23:16.787Z,10.73
2017-04-14T10:24:17.264Z,10.72
2017-04-14T10:25:16.429Z,10.73
2017-04-14T10:26:16.713Z,10.86
2017-04-14T10:27:16.447Z,10.81
2017-04-14T10:28:16.375Z,10.86
2017-04-14T10:29:16.658Z,10.87
2017-04-14T10:30:16.624Z,10.81
2017-04-14T10:31:16.657Z,10.76
2017-04-14T10:32:16.586Z,10.81
2017-04-14T10:33:17.416Z,10.8
2017-04-14T10:34:16.544Z,10.83
2017-04-14T10:35:16.514Z,10.68
2017-04-14T10:36:16.261Z,10.76
2017-04-14T10:37:16.473Z,10.75
2017-04-14T10:38:16.457Z,10.81
2017-04-14T10:39:16.434Z,10.66
2017-04-14T10:40:16.104Z,10.75
2017-04-14T10:41:16.393Z,10.63
2017-04-14T10:42:16.364Z,10.69
2017-04-14T10:43:16.343Z,10.81
2017-04-14T10:44:16.330Z,10.7
2017-04-14T10:45:16.362Z,10.78
2017-04-14T10:46:16.276Z,10.84
2017-04-14T10:47:17.456Z,10.93
2017-04-14T10:48:16.229Z,10.99
2017-04-14T10:49:16.209Z,10.98
2017-04-14T10:50:16.192Z,10.95
2017-04-14T10:51:16.170Z,11.09
2017-04-14T10:52:16.146Z,11.11
2017-04-14T10:53:16.122Z,11.3
2017-04-14T10:54:16.100Z,11.38
2017-04-14T10:55:16.086Z,11.38
2017-04-14T10:56:16.058Z,11.38
2017-04-14T10:57:16.034Z,11.41
2017-04-14T10:58:16.237Z,11.31
2017-04-14T10:59:15.992Z,11.28
2017-04-14T11:00:15.968Z,11.33
2017-04-14T11:01:15.957Z,11.44
2017-04-14T11:02:15.930Z,11.38
2017-04-14T11:03:15.902Z,11.42
2017-04-14T11:04:15.591Z,11.38
2017-04-14T11:05:15.856Z,11.53
2017-04-14T11:06:15.839Z,11.49
2017-04-14T11:07:15.572Z,11.54
2017-04-14T11:08:15.494Z,11.53
2017-04-14T11:09:16.171Z,11.53
2017-04-14T11:10:15.750Z,11.54
2017-04-14T11:11:15.789Z,11.57
2017-04-14T11:12:15.709Z,11.63
2017-04-14T11:13:15.091Z,11.57
2017-04-14T11:14:15.373Z,11.62
2017-04-14T11:15:15.653Z,11.6
2017-04-14T11:16:15.627Z,11.69
2017-04-14T11:17:15.617Z,11.74
2017-04-14T11:18:15.585Z,11.69
2017-04-14T11:19:15.571Z,11.66
2017-04-14T11:20:15.537Z,11.57
2017-04-14T11:21:15.569Z,11.63
2017-04-14T11:22:15.500Z,11.67
2017-04-14T11:23:15.475Z,11.72
2017-04-14T11:24:15.455Z,11.75
2017-04-14T11:25:15.489Z,11.85
2017-04-14T11:26:15.110Z,11.88
2017-04-14T11:27:15.399Z,11.98
2017-04-14T11:28:15.373Z,11.88
2017-04-14T11:29:15.350Z,12.03
2017-04-14T11:30:15.325Z,12.07
2017-04-14T11:31:16.608Z,12.13
2017-04-14T11:32:15.281Z,12.13
2017-04-14T11:33:14.955Z,12.15
2017-04-14T11:34:15.248Z,12.16
2017-04-14T11:35:15.213Z,12.23
2017-04-14T11:36:15.210Z,12.22
2017-04-14T11:37:15.177Z,12.26
2017-04-14T11:38:14.858Z,12.23
2017-04-14T11:39:14.543Z,12.25
2017-04-14T11:40:14.823Z,12.25
2017-04-14T11:41:15.098Z,12.26
2017-04-14T11:42:15.124Z,12.29
2017-04-14T11:43:15.054Z,12.31
2017-04-14T11:44:15.044Z,12.37
2017-04-14T11:45:15.020Z,12.34
2017-04-14T11:46:14.994Z,12.26
2017-04-14T11:47:14.873Z,12.41
2017-04-14T11:48:14.962Z,12.43
2017-04-14T11:49:14.931Z,12.43
2017-04-14T11:50:14.915Z,12.55
2017-04-14T11:51:14.880Z,12.46
2017-04-14T11:52:15.018Z,12.54
2017-04-14T11:53:14.846Z,12.51
2017-04-14T11:54:14.819Z,12.58
2017-04-14T11:55:14.803Z,12.55
2017-04-14T11:56:14.791Z,12.44
2017-04-14T11:57:14.763Z,12.48
2017-04-14T11:58:14.742Z,12.46
2017-04-14T11:59:14.717Z,12.41
2017-04-14T12:00:14.697Z,12.44
2017-04-14T12:01:14.670Z,12.49
2017-04-14T12:02:14.650Z,12.55
2017-04-14T12:03:14.630Z,12.43
2017-04-14T12:04:14.621Z,12.49
2017-04-14T12:05:16.029Z,12.52
2017-04-14T12:06:14.578Z,12.52
2017-04-14T12:07:14.566Z,12.56
2017-04-14T12:08:14.784Z,12.71
2017-04-14T12:09:14.203Z,12.7
2017-04-14T12:10:14.487Z,12.76
2017-04-14T12:11:14.160Z,12.88
2017-04-14T12:12:14.448Z,12.96
2017-04-14T12:13:14.421Z,12.99
2017-04-14T12:14:14.408Z,13.09
2017-04-14T12:15:14.382Z,13.13
2017-04-14T12:16:14.359Z,13.22
2017-04-14T12:17:14.285Z,13.29
2017-04-14T12:18:14.315Z,13.41
2017-04-14T12:19:14.301Z,13.44
2017-04-14T12:20:14.335Z,13.43
2017-04-14T12:21:14.261Z,13.41
2017-04-14T12:22:14.042Z,13.39
2017-04-14T12:23:13.915Z,13.35
2017-04-14T12:24:14.210Z,13.32
2017-04-14T12:25:14.177Z,13.36
2017-04-14T12:26:14.164Z,13.35
2017-04-14T12:27:14.132Z,13.35
2017-04-14T12:28:14.116Z,13.36
2017-04-14T12:29:14.102Z,13.29
2017-04-14T12:30:14.095Z,13.35
2017-04-14T12:31:14.058Z,13.38
2017-04-14T12:32:14.039Z,13.39
2017-04-14T12:33:14.020Z,13.38
2017-04-14T12:34:13.992Z,13.38
2017-04-14T12:35:13.975Z,13.27
2017-04-14T12:36:13.957Z,13.24
2017-04-14T12:37:13.929Z,13.19
2017-04-14T12:38:13.916Z,13.28
2017-04-14T12:39:13.895Z,13.25
2017-04-14T12:40:13.572Z,13.27
2017-04-14T12:41:13.645Z,13.29
2017-04-14T12:42:13.829Z,13.21
2017-04-14T12:43:13.806Z,13.19
2017-04-14T12:44:13.793Z,13.13
2017-04-14T12:45:13.770Z,13.07
2017-04-14T12:46:13.749Z,12.99
2017-04-14T12:47:13.778Z,12.88
2017-04-14T12:48:13.707Z,12.77
2017-04-14T12:49:13.693Z,12.84
2017-04-14T12:50:13.670Z,12.74
2017-04-14T12:51:13.645Z,12.71
2017-04-14T12:52:13.678Z,12.76
2017-04-14T12:53:13.612Z,12.69
2017-04-14T12:54:13.293Z,12.69
2017-04-14T12:55:13.558Z,12.66
2017-04-14T12:56:13.543Z,12.67
2017-04-14T12:57:13.524Z,12.63
2017-04-14T12:58:13.508Z,12.66
2017-04-14T12:59:13.485Z,12.74
2017-04-14T13:00:13.506Z,12.74
2017-04-14T13:01:13.490Z,12.77
2017-04-14T13:02:13.418Z,12.73
2017-04-14T13:03:13.398Z,12.71
2017-04-14T13:04:13.373Z,12.7
2017-04-14T13:05:13.356Z,12.74
2017-04-14T13:06:13.329Z,12.7